sensor_id;sensor_type;location;lat;lon;timestamp;P1;durP1;ratioP1;P2;durP2;ratioP2
57697;SDS011;43531;52.152;6.366;2023-07-02T00:00:21;2.13;;;1.92;;
57697;SDS011;43531;52.152;6.366;2023-07-02T00:00:53;4.47;;;2.00;;
57697;SDS011;43531;52.152;6.366;2023-07-02T00:01:26;2.15;;;1.95;;
57697;SDS011;43531;52.152;6.366;2023-07-02T00:01:57;3.28;;;1.90;;
57697;SDS011;43531;52.152;6.366;2023-07-02T00:02:29;3.60;;;1.77;;
57697;SDS011;43531;52.152;6.366;2023-07-02T00:03:01;4.25;;;1.98;;
57697;SDS011;43531;52.152;6.366;2023-07-02T00:03:33;2.35;;;1.60;;
57697;SDS011;43531;52.152;6.366;2023-07-02T00:04:04;3.88;;;2.00;;
57697;SDS011;43531;52.152;6.366;2023-07-02T00:04:36;5.18;;;2.60;;
57697;SDS011;43531;52.152;6.366;2023-07-02T00:05:08;6.40;;;1.83;;
57697;SDS011;43531;52.152;6.366;2023-07-02T00:05:39;2.85;;;1.98;;
57697;SDS011;43531;52.152;6.366;2023-07-02T00:06:11;2.53;;;1.80;;
57697;SDS011;43531;52.152;6.366;2023-07-02T00:06:43;2.70;;;1.92;;
57697;SDS011;43531;52.152;6.366;2023-07-02T00:07:15;1.88;;;1.70;;
57697;SDS011;43531;52.152;6.366;2023-07-02T00:07:46;4.55;;;2.17;;
57697;SDS011;43531;52.152;6.366;2023-07-02T00:08:18;2.40;;;2.13;;
57697;SDS011;43531;52.152;6.366;2023-07-02T00:08:49;3.45;;;2.10;;
57697;SDS011;43531;52.152;6.366;2023-07-02T00:09:21;4.88;;;2.47;;
57697;SDS011;43531;52.152;6.366;2023-07-02T00:09:53;2.50;;;2.30;;
57697;SDS011;43531;52.152;6.366;2023-07-02T00:10:25;2.50;;;2.10;;
57697;SDS011;43531;52.152;6.366;2023-07-02T00:10:57;3.97;;;2.42;;
57697;SDS011;43531;52.152;6.366;2023-07-02T00:11:29;2.90;;;1.83;;
57697;SDS011;43531;52.152;6.366;2023-07-02T00:12:00;4.55;;;2.13;;
57697;SDS011;43531;52.152;6.366;2023-07-02T00:12:32;3.45;;;2.38;;
57697;SDS011;43531;52.152;6.366;2023-07-02T00:13:04;3.85;;;2.45;;
57697;SDS011;43531;52.152;6.366;2023-07-02T00:13:35;2.42;;;2.10;;
57697;SDS011;43531;52.152;6.366;2023-07-02T00:14:07;4.38;;;2.38;;
57697;SDS011;43531;52.152;6.366;2023-07-02T00:14:39;3.72;;;2.50;;
57697;SDS011;43531;52.152;6.366;2023-07-02T00:15:11;2.63;;;1.95;;
57697;SDS011;43531;52.152;6.366;2023-07-02T00:15:42;3.70;;;1.98;;
57697;SDS011;43531;52.152;6.366;2023-07-02T00:16:14;2.65;;;1.90;;
57697;SDS011;43531;52.152;6.366;2023-07-02T00:16:46;3.38;;;2.28;;
57697;SDS011;43531;52.152;6.366;2023-07-02T00:17:18;4.65;;;3.38;;
57697;SDS011;43531;52.152;6.366;2023-07-02T00:17:50;3.63;;;2.50;;
57697;SDS011;43531;52.152;6.366;2023-07-02T00:18:22;4.35;;;2.75;;
57697;SDS011;43531;52.152;6.366;2023-07-02T00:18:53;4.50;;;3.00;;
57697;SDS011;43531;52.152;6.366;2023-07-02T00:19:25;7.72;;;2.90;;
57697;SDS011;43531;52.152;6.366;2023-07-02T00:19:57;4.45;;;2.50;;
57697;SDS011;43531;52.152;6.366;2023-07-02T00:20:28;6.45;;;2.85;;
57697;SDS011;43531;52.152;6.366;2023-07-02T00:21:01;5.55;;;2.45;;
57697;SDS011;43531;52.152;6.366;2023-07-02T00:21:36;2.25;;;1.92;;
57697;SDS011;43531;52.152;6.366;2023-07-02T00:22:08;5.22;;;2.40;;
57697;SDS011;43531;52.152;6.366;2023-07-02T00:22:40;3.83;;;2.53;;
57697;SDS011;43531;52.152;6.366;2023-07-02T00:23:16;3.08;;;2.53;;
57697;SDS011;43531;52.152;6.366;2023-07-02T00:23:47;5.53;;;2.20;;
57697;SDS011;43531;52.152;6.366;2023-07-02T00:24:19;3.95;;;2.95;;
57697;SDS011;43531;52.152;6.366;2023-07-02T00:24:50;4.65;;;2.35;;
57697;SDS011;43531;52.152;6.366;2023-07-02T00:25:23;4.35;;;2.03;;
57697;SDS011;43531;52.152;6.366;2023-07-02T00:25:54;2.65;;;2.45;;
57697;SDS011;43531;52.152;6.366;2023-07-02T00:26:27;4.07;;;2.80;;
57697;SDS011;43531;52.152;6.366;2023-07-02T00:26:59;6.40;;;2.70;;
57697;SDS011;43531;52.152;6.366;2023-07-02T00:27:31;3.75;;;2.67;;
57697;SDS011;43531;52.152;6.366;2023-07-02T00:28:03;5.20;;;3.00;;
57697;SDS011;43531;52.152;6.366;2023-07-02T00:28:34;3.10;;;2.80;;
57697;SDS011;43531;52.152;6.366;2023-07-02T00:29:06;6.40;;;2.72;;
57697;SDS011;43531;52.152;6.366;2023-07-02T00:29:39;3.20;;;2.88;;
57697;SDS011;43531;52.152;6.366;2023-07-02T00:30:10;3.85;;;2.50;;
57697;SDS011;43531;52.152;6.366;2023-07-02T00:30:42;2.45;;;2.22;;
57697;SDS011;43531;52.152;6.366;2023-07-02T00:31:14;6.75;;;2.60;;
57697;SDS011;43531;52.152;6.366;2023-07-02T00:31:45;5.75;;;2.85;;
57697;SDS011;43531;52.152;6.366;2023-07-02T00:32:17;2.63;;;2.22;;
57697;SDS011;43531;52.152;6.366;2023-07-02T00:32:49;3.80;;;3.13;;
57697;SDS011;43531;52.152;6.366;2023-07-02T00:33:20;4.97;;;2.65;;
57697;SDS011;43531;52.152;6.366;2023-07-02T00:33:52;4.93;;;2.50;;
57697;SDS011;43531;52.152;6.366;2023-07-02T00:34:23;2.72;;;2.38;;
57697;SDS011;43531;52.152;6.366;2023-07-02T00:34:56;4.90;;;3.63;;
57697;SDS011;43531;52.152;6.366;2023-07-02T00:35:27;4.05;;;3.20;;
57697;SDS011;43531;52.152;6.366;2023-07-02T00:36:00;8.38;;;4.18;;
57697;SDS011;43531;52.152;6.366;2023-07-02T00:36:32;4.40;;;2.97;;
57697;SDS011;43531;52.152;6.366;2023-07-02T00:37:03;5.65;;;3.10;;
57697;SDS011;43531;52.152;6.366;2023-07-02T00:37:35;4.30;;;3.10;;
57697;SDS011;43531;52.152;6.366;2023-07-02T00:38:07;5.47;;;3.20;;
57697;SDS011;43531;52.152;6.366;2023-07-02T00:38:40;5.40;;;3.28;;
57697;SDS011;43531;52.152;6.366;2023-07-02T00:39:13;4.53;;;2.97;;
57697;SDS011;43531;52.152;6.366;2023-07-02T00:39:45;4.70;;;3.13;;
57697;SDS011;43531;52.152;6.366;2023-07-02T00:40:16;6.63;;;3.15;;
57697;SDS011;43531;52.152;6.366;2023-07-02T00:40:48;6.38;;;3.00;;
57697;SDS011;43531;52.152;6.366;2023-07-02T00:41:20;6.15;;;3.33;;
57697;SDS011;43531;52.152;6.366;2023-07-02T00:41:52;10.93;;;3.10;;
57697;SDS011;43531;52.152;6.366;2023-07-02T00:42:23;8.88;;;3.40;;
57697;SDS011;43531;52.152;6.366;2023-07-02T00:42:55;3.47;;;3.08;;
57697;SDS011;43531;52.152;6.366;2023-07-02T00:43:27;7.90;;;3.30;;
57697;SDS011;43531;52.152;6.366;2023-07-02T00:43:59;4.40;;;2.97;;
57697;SDS011;43531;52.152;6.366;2023-07-02T00:44:31;6.82;;;3.38;;
57697;SDS011;43531;52.152;6.366;2023-07-02T00:45:03;4.82;;;3.38;;
57697;SDS011;43531;52.152;6.366;2023-07-02T00:45:35;9.15;;;3.78;;
57697;SDS011;43531;52.152;6.366;2023-07-02T00:46:07;9.70;;;3.58;;
57697;SDS011;43531;52.152;6.366;2023-07-02T00:46:39;8.95;;;3.75;;
57697;SDS011;43531;52.152;6.366;2023-07-02T00:47:11;8.40;;;3.05;;
57697;SDS011;43531;52.152;6.366;2023-07-02T00:47:43;11.32;;;3.92;;
57697;SDS011;43531;52.152;6.366;2023-07-02T00:48:15;6.28;;;4.05;;
57697;SDS011;43531;52.152;6.366;2023-07-02T00:48:47;5.25;;;3.00;;
57697;SDS011;43531;52.152;6.366;2023-07-02T00:49:19;9.77;;;4.10;;
57697;SDS011;43531;52.152;6.366;2023-07-02T00:49:51;5.70;;;3.58;;
57697;SDS011;43531;52.152;6.366;2023-07-02T00:50:23;5.72;;;3.65;;
57697;SDS011;43531;52.152;6.366;2023-07-02T00:50:55;7.72;;;3.03;;
57697;SDS011;43531;52.152;6.366;2023-07-02T00:51:27;7.32;;;3.53;;
57697;SDS011;43531;52.152;6.366;2023-07-02T00:51:58;14.20;;;4.63;;
57697;SDS011;43531;52.152;6.366;2023-07-02T00:52:30;7.78;;;3.05;;
57697;SDS011;43531;52.152;6.366;2023-07-02T00:53:02;9.35;;;3.50;;
57697;SDS011;43531;52.152;6.366;2023-07-02T00:53:34;6.13;;;3.40;;
57697;SDS011;43531;52.152;6.366;2023-07-02T00:54:05;9.10;;;3.88;;
57697;SDS011;43531;52.152;6.366;2023-07-02T00:54:37;9.82;;;3.95;;
57697;SDS011;43531;52.152;6.366;2023-07-02T00:55:09;8.68;;;3.85;;
57697;SDS011;43531;52.152;6.366;2023-07-02T00:55:40;10.02;;;4.82;;
57697;SDS011;43531;52.152;6.366;2023-07-02T00:56:12;9.20;;;4.00;;
57697;SDS011;43531;52.152;6.366;2023-07-02T00:56:44;10.77;;;4.82;;
57697;SDS011;43531;52.152;6.366;2023-07-02T00:57:19;8.55;;;4.13;;
57697;SDS011;43531;52.152;6.366;2023-07-02T00:57:51;10.75;;;4.85;;
57697;SDS011;43531;52.152;6.366;2023-07-02T00:58:22;7.97;;;5.13;;
57697;SDS011;43531;52.152;6.366;2023-07-02T00:58:54;10.90;;;3.90;;
57697;SDS011;43531;52.152;6.366;2023-07-02T00:59:31;11.23;;;4.93;;
57697;SDS011;43531;52.152;6.366;2023-07-02T01:00:06;11.32;;;5.35;;
57697;SDS011;43531;52.152;6.366;2023-07-02T01:00:39;8.10;;;4.13;;
57697;SDS011;43531;52.152;6.366;2023-07-02T01:01:11;10.23;;;4.97;;
57697;SDS011;43531;52.152;6.366;2023-07-02T01:01:43;11.73;;;4.60;;
57697;SDS011;43531;52.152;6.366;2023-07-02T01:02:23;13.30;;;4.97;;
57697;SDS011;43531;52.152;6.366;2023-07-02T01:02:57;7.57;;;3.95;;
57697;SDS011;43531;52.152;6.366;2023-07-02T01:03:30;12.98;;;6.13;;
57697;SDS011;43531;52.152;6.366;2023-07-02T01:04:06;10.80;;;4.57;;
57697;SDS011;43531;52.152;6.366;2023-07-02T01:04:47;15.52;;;6.38;;
57697;SDS011;43531;52.152;6.366;2023-07-02T01:05:23;13.35;;;4.55;;
57697;SDS011;43531;52.152;6.366;2023-07-02T01:05:55;7.30;;;3.90;;
57697;SDS011;43531;52.152;6.366;2023-07-02T01:06:30;11.15;;;4.50;;
57697;SDS011;43531;52.152;6.366;2023-07-02T01:07:03;8.65;;;4.30;;
57697;SDS011;43531;52.152;6.366;2023-07-02T01:07:40;8.32;;;4.35;;
57697;SDS011;43531;52.152;6.366;2023-07-02T01:08:11;11.60;;;4.90;;
57697;SDS011;43531;52.152;6.366;2023-07-02T01:08:43;12.45;;;4.97;;
57697;SDS011;43531;52.152;6.366;2023-07-02T01:09:15;11.27;;;4.70;;
57697;SDS011;43531;52.152;6.366;2023-07-02T01:09:46;11.85;;;4.65;;
57697;SDS011;43531;52.152;6.366;2023-07-02T01:10:18;7.65;;;3.83;;
57697;SDS011;43531;52.152;6.366;2023-07-02T01:10:50;7.47;;;3.42;;
57697;SDS011;43531;52.152;6.366;2023-07-02T01:11:22;7.88;;;4.15;;
57697;SDS011;43531;52.152;6.366;2023-07-02T01:11:59;8.75;;;4.30;;
57697;SDS011;43531;52.152;6.366;2023-07-02T01:12:32;13.57;;;5.45;;
57697;SDS011;43531;52.152;6.366;2023-07-02T01:13:08;6.57;;;4.40;;
57697;SDS011;43531;52.152;6.366;2023-07-02T01:13:41;9.85;;;4.30;;
57697;SDS011;43531;52.152;6.366;2023-07-02T01:14:19;6.88;;;4.28;;
57697;SDS011;43531;52.152;6.366;2023-07-02T01:14:53;10.48;;;4.78;;
57697;SDS011;43531;52.152;6.366;2023-07-02T01:15:27;9.38;;;4.40;;
57697;SDS011;43531;52.152;6.366;2023-07-02T01:15:59;8.25;;;4.15;;
57697;SDS011;43531;52.152;6.366;2023-07-02T01:16:31;7.28;;;4.50;;
57697;SDS011;43531;52.152;6.366;2023-07-02T01:17:05;7.63;;;4.00;;
57697;SDS011;43531;52.152;6.366;2023-07-02T01:17:37;12.98;;;5.10;;
57697;SDS011;43531;52.152;6.366;2023-07-02T01:18:13;10.07;;;4.00;;
57697;SDS011;43531;52.152;6.366;2023-07-02T01:18:45;10.82;;;4.65;;
57697;SDS011;43531;52.152;6.366;2023-07-02T01:20:22;7.13;;;4.38;;
57697;SDS011;43531;52.152;6.366;2023-07-02T01:20:55;9.25;;;5.07;;
57697;SDS011;43531;52.152;6.366;2023-07-02T01:21:27;7.78;;;5.10;;
57697;SDS011;43531;52.152;6.366;2023-07-02T01:21:59;9.35;;;3.97;;
57697;SDS011;43531;52.152;6.366;2023-07-02T01:22:31;9.75;;;5.75;;
57697;SDS011;43531;52.152;6.366;2023-07-02T01:23:06;19.15;;;4.20;;
57697;SDS011;43531;52.152;6.366;2023-07-02T01:23:39;7.65;;;4.22;;
57697;SDS011;43531;52.152;6.366;2023-07-02T01:24:11;7.38;;;3.97;;
57697;SDS011;43531;52.152;6.366;2023-07-02T01:24:45;12.07;;;4.55;;
57697;SDS011;43531;52.152;6.366;2023-07-02T01:25:20;6.50;;;4.20;;
57697;SDS011;43531;52.152;6.366;2023-07-02T01:25:55;6.20;;;3.95;;
57697;SDS011;43531;52.152;6.366;2023-07-02T01:26:30;9.88;;;4.80;;
57697;SDS011;43531;52.152;6.366;2023-07-02T01:27:05;10.95;;;5.38;;
57697;SDS011;43531;52.152;6.366;2023-07-02T01:27:37;13.38;;;4.32;;
57697;SDS011;43531;52.152;6.366;2023-07-02T01:28:10;11.07;;;5.15;;
57697;SDS011;43531;52.152;6.366;2023-07-02T01:28:45;11.25;;;4.20;;
57697;SDS011;43531;52.152;6.366;2023-07-02T01:29:17;8.88;;;4.18;;
57697;SDS011;43531;52.152;6.366;2023-07-02T01:29:50;11.93;;;5.38;;
57697;SDS011;43531;52.152;6.366;2023-07-02T01:30:22;10.00;;;5.43;;
57697;SDS011;43531;52.152;6.366;2023-07-02T01:30:54;9.65;;;4.80;;
57697;SDS011;43531;52.152;6.366;2023-07-02T01:31:25;6.65;;;4.03;;
57697;SDS011;43531;52.152;6.366;2023-07-02T01:31:57;10.23;;;5.15;;
57697;SDS011;43531;52.152;6.366;2023-07-02T01:32:29;10.40;;;4.28;;
57697;SDS011;43531;52.152;6.366;2023-07-02T01:33:01;6.82;;;4.07;;
57697;SDS011;43531;52.152;6.366;2023-07-02T01:33:32;11.40;;;4.68;;
57697;SDS011;43531;52.152;6.366;2023-07-02T01:34:04;8.90;;;4.47;;
57697;SDS011;43531;52.152;6.366;2023-07-02T01:34:36;10.27;;;5.43;;
57697;SDS011;43531;52.152;6.366;2023-07-02T01:35:08;9.32;;;4.70;;
57697;SDS011;43531;52.152;6.366;2023-07-02T01:35:40;9.48;;;4.93;;
57697;SDS011;43531;52.152;6.366;2023-07-02T01:36:13;12.23;;;5.75;;
57697;SDS011;43531;52.152;6.366;2023-07-02T01:36:44;5.38;;;3.80;;
57697;SDS011;43531;52.152;6.366;2023-07-02T01:37:16;11.75;;;4.35;;
57697;SDS011;43531;52.152;6.366;2023-07-02T01:37:51;7.43;;;4.15;;
57697;SDS011;43531;52.152;6.366;2023-07-02T01:38:22;10.95;;;5.07;;
57697;SDS011;43531;52.152;6.366;2023-07-02T01:38:54;7.63;;;4.28;;
57697;SDS011;43531;52.152;6.366;2023-07-02T01:39:25;8.25;;;4.72;;
57697;SDS011;43531;52.152;6.366;2023-07-02T01:39:57;8.27;;;4.50;;
57697;SDS011;43531;52.152;6.366;2023-07-02T01:40:31;10.52;;;4.55;;
57697;SDS011;43531;52.152;6.366;2023-07-02T01:41:03;9.18;;;4.35;;
57697;SDS011;43531;52.152;6.366;2023-07-02T01:41:37;9.38;;;4.78;;
57697;SDS011;43531;52.152;6.366;2023-07-02T01:42:16;8.60;;;4.63;;
57697;SDS011;43531;52.152;6.366;2023-07-02T01:42:49;9.90;;;4.75;;
57697;SDS011;43531;52.152;6.366;2023-07-02T01:43:20;13.13;;;5.10;;
57697;SDS011;43531;52.152;6.366;2023-07-02T01:43:53;7.50;;;5.07;;
57697;SDS011;43531;52.152;6.366;2023-07-02T01:44:25;9.32;;;4.20;;
57697;SDS011;43531;52.152;6.366;2023-07-02T01:44:56;7.43;;;4.80;;
57697;SDS011;43531;52.152;6.366;2023-07-02T01:45:28;10.07;;;4.75;;
57697;SDS011;43531;52.152;6.366;2023-07-02T01:45:59;11.48;;;5.93;;
57697;SDS011;43531;52.152;6.366;2023-07-02T01:46:33;7.88;;;4.32;;
57697;SDS011;43531;52.152;6.366;2023-07-02T01:47:04;9.63;;;4.68;;
57697;SDS011;43531;52.152;6.366;2023-07-02T01:47:36;14.05;;;6.38;;
57697;SDS011;43531;52.152;6.366;2023-07-02T01:48:08;9.43;;;5.00;;
57697;SDS011;43531;52.152;6.366;2023-07-02T01:48:40;7.95;;;5.07;;
57697;SDS011;43531;52.152;6.366;2023-07-02T01:49:11;8.63;;;5.28;;
57697;SDS011;43531;52.152;6.366;2023-07-02T01:49:43;10.43;;;5.85;;
57697;SDS011;43531;52.152;6.366;2023-07-02T01:50:15;8.40;;;5.15;;
57697;SDS011;43531;52.152;6.366;2023-07-02T01:50:46;8.18;;;5.30;;
57697;SDS011;43531;52.152;6.366;2023-07-02T01:51:18;8.93;;;4.70;;
57697;SDS011;43531;52.152;6.366;2023-07-02T01:51:51;14.02;;;5.47;;
57697;SDS011;43531;52.152;6.366;2023-07-02T01:52:22;13.52;;;5.47;;
57697;SDS011;43531;52.152;6.366;2023-07-02T01:52:54;11.50;;;5.22;;
57697;SDS011;43531;52.152;6.366;2023-07-02T01:53:26;8.65;;;5.38;;
57697;SDS011;43531;52.152;6.366;2023-07-02T01:53:57;7.78;;;5.03;;
57697;SDS011;43531;52.152;6.366;2023-07-02T01:54:29;7.63;;;5.20;;
57697;SDS011;43531;52.152;6.366;2023-07-02T01:55:03;10.85;;;5.07;;
57697;SDS011;43531;52.152;6.366;2023-07-02T01:55:37;10.35;;;5.80;;
57697;SDS011;43531;52.152;6.366;2023-07-02T01:56:09;10.00;;;4.63;;
57697;SDS011;43531;52.152;6.366;2023-07-02T01:56:40;9.23;;;4.13;;
57697;SDS011;43531;52.152;6.366;2023-07-02T01:57:12;7.43;;;4.47;;
57697;SDS011;43531;52.152;6.366;2023-07-02T01:57:43;6.65;;;4.68;;
57697;SDS011;43531;52.152;6.366;2023-07-02T01:58:15;11.63;;;5.25;;
57697;SDS011;43531;52.152;6.366;2023-07-02T01:58:47;11.68;;;5.75;;
57697;SDS011;43531;52.152;6.366;2023-07-02T01:59:18;14.13;;;5.28;;
57697;SDS011;43531;52.152;6.366;2023-07-02T01:59:51;10.35;;;4.57;;
57697;SDS011;43531;52.152;6.366;2023-07-02T02:00:22;9.30;;;5.28;;
57697;SDS011;43531;52.152;6.366;2023-07-02T02:00:55;8.95;;;5.30;;
57697;SDS011;43531;52.152;6.366;2023-07-02T02:01:27;7.72;;;4.90;;
57697;SDS011;43531;52.152;6.366;2023-07-02T02:01:59;9.52;;;5.30;;
57697;SDS011;43531;52.152;6.366;2023-07-02T02:02:33;16.67;;;5.30;;
57697;SDS011;43531;52.152;6.366;2023-07-02T02:03:05;11.25;;;5.32;;
57697;SDS011;43531;52.152;6.366;2023-07-02T02:03:38;8.38;;;5.65;;
57697;SDS011;43531;52.152;6.366;2023-07-02T02:04:10;8.80;;;6.00;;
57697;SDS011;43531;52.152;6.366;2023-07-02T02:04:43;18.30;;;5.75;;
57697;SDS011;43531;52.152;6.366;2023-07-02T02:05:17;9.40;;;5.22;;
57697;SDS011;43531;52.152;6.366;2023-07-02T02:05:50;7.82;;;5.47;;
57697;SDS011;43531;52.152;6.366;2023-07-02T02:06:22;8.70;;;5.28;;
57697;SDS011;43531;52.152;6.366;2023-07-02T02:06:54;10.20;;;5.90;;
57697;SDS011;43531;52.152;6.366;2023-07-02T02:07:26;12.43;;;5.13;;
57697;SDS011;43531;52.152;6.366;2023-07-02T02:07:58;11.93;;;5.72;;
57697;SDS011;43531;52.152;6.366;2023-07-02T02:08:30;13.65;;;6.85;;
57697;SDS011;43531;52.152;6.366;2023-07-02T02:09:01;10.77;;;5.70;;
57697;SDS011;43531;52.152;6.366;2023-07-02T02:09:34;13.20;;;5.55;;
57697;SDS011;43531;52.152;6.366;2023-07-02T02:10:08;10.00;;;4.65;;
57697;SDS011;43531;52.152;6.366;2023-07-02T02:10:41;14.05;;;5.82;;
57697;SDS011;43531;52.152;6.366;2023-07-02T02:11:13;17.05;;;6.78;;
57697;SDS011;43531;52.152;6.366;2023-07-02T02:11:47;10.13;;;5.47;;
57697;SDS011;43531;52.152;6.366;2023-07-02T02:12:19;12.77;;;5.20;;
57697;SDS011;43531;52.152;6.366;2023-07-02T02:12:51;10.02;;;5.15;;
57697;SDS011;43531;52.152;6.366;2023-07-02T02:13:23;9.07;;;5.05;;
57697;SDS011;43531;52.152;6.366;2023-07-02T02:13:54;9.85;;;5.50;;
57697;SDS011;43531;52.152;6.366;2023-07-02T02:14:26;11.50;;;5.65;;
57697;SDS011;43531;52.152;6.366;2023-07-02T02:14:58;9.25;;;5.10;;
57697;SDS011;43531;52.152;6.366;2023-07-02T02:15:29;13.93;;;6.18;;
57697;SDS011;43531;52.152;6.366;2023-07-02T02:16:01;9.35;;;5.40;;
57697;SDS011;43531;52.152;6.366;2023-07-02T02:16:33;10.80;;;4.78;;
57697;SDS011;43531;52.152;6.366;2023-07-02T02:17:06;8.48;;;5.82;;
57697;SDS011;43531;52.152;6.366;2023-07-02T02:17:38;10.35;;;5.20;;
57697;SDS011;43531;52.152;6.366;2023-07-02T02:18:10;8.82;;;5.30;;
57697;SDS011;43531;52.152;6.366;2023-07-02T02:18:41;14.63;;;5.88;;
57697;SDS011;43531;52.152;6.366;2023-07-02T02:19:13;9.48;;;5.43;;
57697;SDS011;43531;52.152;6.366;2023-07-02T02:19:46;10.80;;;5.32;;
57697;SDS011;43531;52.152;6.366;2023-07-02T02:20:18;9.10;;;5.65;;
57697;SDS011;43531;52.152;6.366;2023-07-02T02:20:49;6.75;;;4.47;;
57697;SDS011;43531;52.152;6.366;2023-07-02T02:21:21;10.02;;;4.93;;
57697;SDS011;43531;52.152;6.366;2023-07-02T02:21:53;11.15;;;5.60;;
57697;SDS011;43531;52.152;6.366;2023-07-02T02:22:25;13.63;;;7.07;;
57697;SDS011;43531;52.152;6.366;2023-07-02T02:22:56;14.32;;;5.15;;
57697;SDS011;43531;52.152;6.366;2023-07-02T02:23:28;7.47;;;4.80;;
57697;SDS011;43531;52.152;6.366;2023-07-02T02:24:00;9.40;;;4.18;;
57697;SDS011;43531;52.152;6.366;2023-07-02T02:24:31;13.35;;;5.55;;
57697;SDS011;43531;52.152;6.366;2023-07-02T02:25:03;11.52;;;5.05;;
57697;SDS011;43531;52.152;6.366;2023-07-02T02:25:35;13.85;;;5.50;;
57697;SDS011;43531;52.152;6.366;2023-07-02T02:26:07;17.15;;;5.45;;
57697;SDS011;43531;52.152;6.366;2023-07-02T02:26:39;7.88;;;5.00;;
57697;SDS011;43531;52.152;6.366;2023-07-02T02:27:10;11.60;;;6.55;;
57697;SDS011;43531;52.152;6.366;2023-07-02T02:27:42;11.98;;;5.47;;
57697;SDS011;43531;52.152;6.366;2023-07-02T02:28:15;13.77;;;5.63;;
57697;SDS011;43531;52.152;6.366;2023-07-02T02:28:46;14.68;;;5.97;;
57697;SDS011;43531;52.152;6.366;2023-07-02T02:29:18;7.22;;;4.90;;
57697;SDS011;43531;52.152;6.366;2023-07-02T02:29:50;11.85;;;6.03;;
57697;SDS011;43531;52.152;6.366;2023-07-02T02:30:21;9.43;;;5.47;;
57697;SDS011;43531;52.152;6.366;2023-07-02T02:30:53;11.63;;;5.95;;
57697;SDS011;43531;52.152;6.366;2023-07-02T02:31:25;13.68;;;5.25;;
57697;SDS011;43531;52.152;6.366;2023-07-02T02:31:57;13.23;;;5.25;;
57697;SDS011;43531;52.152;6.366;2023-07-02T02:32:29;10.32;;;5.70;;
57697;SDS011;43531;52.152;6.366;2023-07-02T02:33:01;7.70;;;4.53;;
57697;SDS011;43531;52.152;6.366;2023-07-02T02:33:33;8.55;;;5.65;;
57697;SDS011;43531;52.152;6.366;2023-07-02T02:34:08;11.13;;;5.53;;
57697;SDS011;43531;52.152;6.366;2023-07-02T02:34:39;8.93;;;4.75;;
57697;SDS011;43531;52.152;6.366;2023-07-02T02:35:11;11.32;;;5.40;;
57697;SDS011;43531;52.152;6.366;2023-07-02T02:35:43;10.80;;;4.97;;
57697;SDS011;43531;52.152;6.366;2023-07-02T02:36:15;8.60;;;5.43;;
57697;SDS011;43531;52.152;6.366;2023-07-02T02:36:48;13.73;;;5.30;;
57697;SDS011;43531;52.152;6.366;2023-07-02T02:37:20;11.85;;;6.03;;
57697;SDS011;43531;52.152;6.366;2023-07-02T02:37:54;12.82;;;5.55;;
57697;SDS011;43531;52.152;6.366;2023-07-02T02:38:26;8.60;;;5.13;;
57697;SDS011;43531;52.152;6.366;2023-07-02T02:38:57;9.55;;;5.75;;
57697;SDS011;43531;52.152;6.366;2023-07-02T02:39:31;8.65;;;5.88;;
57697;SDS011;43531;52.152;6.366;2023-07-02T02:40:03;10.77;;;5.97;;
57697;SDS011;43531;52.152;6.366;2023-07-02T02:40:37;10.23;;;6.28;;
57697;SDS011;43531;52.152;6.366;2023-07-02T02:41:12;12.02;;;5.38;;
57697;SDS011;43531;52.152;6.366;2023-07-02T02:41:49;14.40;;;6.03;;
57697;SDS011;43531;52.152;6.366;2023-07-02T02:42:24;11.55;;;6.65;;
57697;SDS011;43531;52.152;6.366;2023-07-02T02:42:56;10.45;;;5.50;;
57697;SDS011;43531;52.152;6.366;2023-07-02T02:43:28;8.77;;;5.25;;
57697;SDS011;43531;52.152;6.366;2023-07-02T02:44:00;13.32;;;5.82;;
57697;SDS011;43531;52.152;6.366;2023-07-02T02:44:32;8.98;;;5.15;;
57697;SDS011;43531;52.152;6.366;2023-07-02T02:45:04;13.30;;;5.57;;
57697;SDS011;43531;52.152;6.366;2023-07-02T02:45:36;10.48;;;5.75;;
57697;SDS011;43531;52.152;6.366;2023-07-02T02:46:08;12.85;;;5.35;;
57697;SDS011;43531;52.152;6.366;2023-07-02T02:46:40;9.40;;;5.78;;
57697;SDS011;43531;52.152;6.366;2023-07-02T02:47:12;11.43;;;6.35;;
57697;SDS011;43531;52.152;6.366;2023-07-02T02:47:45;9.63;;;5.43;;
57697;SDS011;43531;52.152;6.366;2023-07-02T02:48:17;10.45;;;6.00;;
57697;SDS011;43531;52.152;6.366;2023-07-02T02:48:49;8.48;;;5.57;;
57697;SDS011;43531;52.152;6.366;2023-07-02T02:49:21;12.35;;;6.20;;
57697;SDS011;43531;52.152;6.366;2023-07-02T02:49:52;10.40;;;5.20;;
57697;SDS011;43531;52.152;6.366;2023-07-02T02:50:24;11.10;;;5.13;;
57697;SDS011;43531;52.152;6.366;2023-07-02T02:50:55;12.40;;;5.03;;
57697;SDS011;43531;52.152;6.366;2023-07-02T02:51:27;12.70;;;5.57;;
57697;SDS011;43531;52.152;6.366;2023-07-02T02:51:59;8.73;;;5.75;;
57697;SDS011;43531;52.152;6.366;2023-07-02T02:52:30;13.25;;;5.38;;
57697;SDS011;43531;52.152;6.366;2023-07-02T02:53:02;14.45;;;5.95;;
57697;SDS011;43531;52.152;6.366;2023-07-02T02:53:36;7.55;;;5.10;;
57697;SDS011;43531;52.152;6.366;2023-07-02T02:54:08;8.70;;;5.25;;
57697;SDS011;43531;52.152;6.366;2023-07-02T02:54:40;11.18;;;5.55;;
57697;SDS011;43531;52.152;6.366;2023-07-02T02:55:11;9.90;;;5.18;;
57697;SDS011;43531;52.152;6.366;2023-07-02T02:55:43;11.57;;;6.82;;
57697;SDS011;43531;52.152;6.366;2023-07-02T02:56:15;8.43;;;4.97;;
57697;SDS011;43531;52.152;6.366;2023-07-02T02:56:47;13.60;;;5.13;;
57697;SDS011;43531;52.152;6.366;2023-07-02T02:57:19;11.55;;;5.35;;
57697;SDS011;43531;52.152;6.366;2023-07-02T02:57:50;12.27;;;5.50;;
57697;SDS011;43531;52.152;6.366;2023-07-02T02:58:22;10.07;;;5.63;;
57697;SDS011;43531;52.152;6.366;2023-07-02T02:58:54;13.57;;;5.07;;
57697;SDS011;43531;52.152;6.366;2023-07-02T02:59:26;8.68;;;5.82;;
57697;SDS011;43531;52.152;6.366;2023-07-02T02:59:59;16.55;;;5.57;;
57697;SDS011;43531;52.152;6.366;2023-07-02T03:00:30;10.30;;;6.00;;
57697;SDS011;43531;52.152;6.366;2023-07-02T03:01:02;10.45;;;5.25;;
57697;SDS011;43531;52.152;6.366;2023-07-02T03:01:40;8.80;;;5.45;;
57697;SDS011;43531;52.152;6.366;2023-07-02T03:02:12;13.70;;;5.43;;
57697;SDS011;43531;52.152;6.366;2023-07-02T03:02:43;10.82;;;5.28;;
57697;SDS011;43531;52.152;6.366;2023-07-02T03:03:15;10.32;;;5.22;;
57697;SDS011;43531;52.152;6.366;2023-07-02T03:03:50;7.90;;;5.30;;
57697;SDS011;43531;52.152;6.366;2023-07-02T03:04:22;13.73;;;4.88;;
57697;SDS011;43531;52.152;6.366;2023-07-02T03:04:57;7.75;;;5.65;;
57697;SDS011;43531;52.152;6.366;2023-07-02T03:05:33;11.93;;;6.28;;
57697;SDS011;43531;52.152;6.366;2023-07-02T03:06:05;8.55;;;5.80;;
57697;SDS011;43531;52.152;6.366;2023-07-02T03:06:37;7.25;;;4.93;;
57697;SDS011;43531;52.152;6.366;2023-07-02T03:07:08;15.02;;;6.05;;
57697;SDS011;43531;52.152;6.366;2023-07-02T03:07:40;8.15;;;5.00;;
57697;SDS011;43531;52.152;6.366;2023-07-02T03:08:12;9.77;;;5.60;;
57697;SDS011;43531;52.152;6.366;2023-07-02T03:08:43;10.85;;;6.05;;
57697;SDS011;43531;52.152;6.366;2023-07-02T03:09:15;13.23;;;5.40;;
57697;SDS011;43531;52.152;6.366;2023-07-02T03:09:46;11.05;;;5.38;;
57697;SDS011;43531;52.152;6.366;2023-07-02T03:10:18;9.55;;;5.68;;
57697;SDS011;43531;52.152;6.366;2023-07-02T03:10:50;8.38;;;4.88;;
57697;SDS011;43531;52.152;6.366;2023-07-02T03:11:22;11.23;;;6.22;;
57697;SDS011;43531;52.152;6.366;2023-07-02T03:11:53;7.53;;;4.63;;
57697;SDS011;43531;52.152;6.366;2023-07-02T03:12:25;12.65;;;5.72;;
57697;SDS011;43531;52.152;6.366;2023-07-02T03:12:57;11.63;;;5.72;;
57697;SDS011;43531;52.152;6.366;2023-07-02T03:13:47;16.38;;;5.60;;
57697;SDS011;43531;52.152;6.366;2023-07-02T03:14:20;12.18;;;5.57;;
57697;SDS011;43531;52.152;6.366;2023-07-02T03:14:51;10.07;;;5.88;;
57697;SDS011;43531;52.152;6.366;2023-07-02T03:15:25;12.30;;;5.75;;